Wadhams, New York
Current Conditions -  °F | °C
As of 2:54 AM on Friday 24 Oct 2014 (Local Time) from KBTV Reporting Station
Light Rain Light Rain  
Wind Chill: 36°   Ceiling: 400
Heat Index: 43°   Visibility: 4mi
Dew Point: 40°   Wind: 13mph
Humidity: 89%   Direction: 350°N
Pressure: 29.84"   Gusts: NA
Location:  44.2095°N, 73.4727°W
Report Text: KBTV 240654Z 35011KT 4SM -RA BR OVC004 06/04 A2984 RMK AO2 RAB31 SLP106 P0001 T00610044
Loading
Personal Weather Stations






























Interactive Weather Map
Tropical Storm Tracking
New forecast layout! Learn more

10-Day Weather Forecast

Advertisements
Track Severe Weather on mobile